Terminal Aerodrome Forecast
Issued by NWS Sioux Falls, SD

Home | Current Version | Previous Version | Graphics & Text | Print | Product List | Glossary Off
Versions: 1 2 3 4 5 6 7 8 9 10 11 12

909
FTUS43 KFSD 290520
TAFHON
TAF
KHON 290520Z 2906/3006 11004KT P6SM SCT060
     FM291500 14006KT P6SM SKC=

USA.gov is the U.S. government's official web portal to all federal, state and local government web resources and services.